Time;durP1;ratioP1;P1;durP2;ratioP2;P2;SDS_P1;SDS_P2;PMS_P1;PMS_P2;Temp;Humidity;BMP_temperature;BMP_pressure;BME280_temperature;BME280_humidity;BME280_pressure;Samples;Min_cycle;Max_cycle;Signal;HPM_P1;HPM_P2
2022/01/27 00:02:43;;;;;;;15.15;6.22;;;;;;;4.39;90.25;100863.44;5009209;28;20061;-58
2022/01/27 00:05:18;;;;;;;;;;;;;;;4.35;90.26;100852.25;5009357;28;21357;-58
2022/01/27 00:07:53;;;;;;;19.08;6.13;;;;;;;4.37;90.23;100858.28;5008325;28;19930;-58
2022/01/27 00:10:27;;;;;;;15.98;6.28;;;;;;;4.38;90.30;100857.44;5008663;28;20445;-58
2022/01/27 00:12:55;;;;;;;15.60;6.30;;;;;;;4.38;90.50;100847.19;5010226;28;20093;-58
2022/01/27 00:15:29;;;;;;;14.52;5.68;;;;;;;4.39;90.37;100851.47;5007797;28;20474;-58
2022/01/27 00:17:59;;;;;;;14.38;6.85;;;;;;;4.40;90.51;100848.06;5007645;28;20038;-58
2022/01/27 00:20:26;;;;;;;15.93;6.60;;;;;;;4.40;90.18;100855.78;5010072;28;20045;-58
2022/01/27 00:22:52;;;;;;;20.00;6.95;;;;;;;4.39;90.32;100842.91;5008585;28;20054;-58
2022/01/27 00:25:19;;;;;;;18.27;6.80;;;;;;;4.39;90.34;100846.34;5007798;28;20061;-58
2022/01/27 00:27:46;;;;;;;18.17;7.03;;;;;;;4.39;90.03;100848.91;5008514;28;20053;-58
2022/01/27 00:30:14;;;;;;;14.98;5.95;;;;;;;4.41;90.40;100847.25;5009568;28;20050;-58
2022/01/27 00:32:40;;;;;;;15.05;6.28;;;;;;;4.42;90.86;100848.97;5008684;28;20052;-59
2022/01/27 00:35:07;;;;;;;17.85;6.47;;;;;;;4.43;90.76;100850.69;5007858;28;20045;-59
2022/01/27 00:37:34;;;;;;;21.05;7.20;;;;;;;4.43;90.94;100844.69;5008200;28;20243;-59
2022/01/27 00:40:00;;;;;;;18.45;7.38;;;;;;;4.44;91.01;100851.56;5009008;28;20058;-59
2022/01/27 00:42:28;;;;;;;17.02;6.60;;;;;;;4.43;90.71;100843.00;5009843;28;20066;-58
2022/01/27 00:44:55;;;;;;;20.52;6.45;;;;;;;4.43;90.81;100840.44;5008813;28;20073;-58
2022/01/27 00:47:23;;;;;;;19.60;7.60;;;;;;;4.43;91.11;100845.56;5009085;28;20184;-58
2022/01/27 00:49:50;;;;;;;25.38;7.80;;;;;;;4.44;90.94;100842.16;5007784;28;20061;-59
2022/01/27 00:52:24;;;;;;;22.27;7.80;;;;;;;4.48;90.62;100834.50;5009850;28;20403;-58
2022/01/27 00:54:53;;;;;;;24.80;8.27;;;;;;;4.50;90.87;100835.41;5008710;28;20077;-59
2022/01/27 00:57:33;;;;;;;20.45;7.70;;;;;;;4.49;90.70;100829.41;5007982;28;20541;-59
2022/01/27 01:00:00;;;;;;;20.75;7.65;;;;;;;4.49;90.94;100828.53;5008769;28;20056;-59
2022/01/27 01:02:38;;;;;;;26.10;7.93;;;;;;;4.53;90.49;100820.06;5008715;28;20049;-59
2022/01/27 01:05:19;;;;;;;22.17;7.78;;;;;;;4.54;90.16;100821.78;5008547;28;20054;-59
2022/01/27 01:07:50;;;;;;;22.67;9.38;;;;;;;4.52;90.26;100820.91;5008285;28;20466;-58
2022/01/27 01:15:43;;;;;;;25.13;8.20;;;;;;;4.53;90.64;100794.38;5007766;28;20061;-58
2022/01/27 01:18:25;;;;;;;22.52;8.10;;;;;;;4.53;90.53;100789.25;5007770;28;20112;-58
2022/01/27 01:21:14;;;;;;;22.23;8.48;;;;;;;4.53;90.58;100784.97;5008454;28;20049;-57
2022/01/27 01:29:39;;;;;;;25.10;8.18;;;;;;;4.53;90.99;100786.69;5007868;28;20127;-58
2022/01/27 01:32:16;;;;;;;24.33;8.88;;;;;;;4.54;90.81;100780.72;5007978;28;20046;-57
2022/01/27 01:34:47;;;;;;;23.98;8.65;;;;;;;4.54;91.04;100785.84;5007640;28;20054;-57
2022/01/27 01:37:17;;;;;;;18.50;8.25;;;;;;;4.53;90.44;100784.13;5008719;28;20049;-57
2022/01/27 01:39:44;;;;;;;21.88;8.98;;;;;;;4.53;90.39;100786.69;5007518;28;20132;-58
2022/01/27 01:42:11;;;;;;;18.10;7.97;;;;;;;4.53;90.37;100779.84;5007329;28;20487;-57
2022/01/27 01:44:39;;;;;;;22.23;7.95;;;;;;;4.55;90.74;100785.00;5007339;28;20045;-57
2022/01/27 01:47:07;;;;;;;19.40;8.15;;;;;;;4.54;90.53;100780.72;5005306;28;20057;-57
2022/01/27 01:49:33;;;;;;;18.77;7.43;;;;;;;4.55;90.28;100772.16;5006334;28;20041;-58
2022/01/27 01:52:05;;;;;;;22.75;7.43;;;;;;;4.54;90.36;100775.56;5005506;28;20041;-58
2022/01/27 01:54:32;;;;;;;22.65;7.60;;;;;;;4.56;90.24;100776.47;5007650;28;20052;-58
2022/01/27 01:56:59;;;;;;;22.52;7.43;;;;;;;4.56;90.41;100767.06;5008351;28;20394;-58
2022/01/27 01:59:26;;;;;;;24.65;7.90;;;;;;;4.59;90.35;100772.25;5007810;28;20437;-58
2022/01/27 02:01:53;;;;;;;23.83;7.88;;;;;;;4.59;90.28;100773.94;5007140;28;20062;-58
2022/01/27 02:04:19;;;;;;;19.25;7.18;;;;;;;4.60;89.96;100762.84;5007938;28;20480;-58
2022/01/27 02:06:50;;;;;;;23.25;8.07;;;;;;;4.61;90.11;100767.13;5007082;28;20041;-58
2022/01/27 02:09:27;;;;;;;20.52;6.57;;;;;;;4.61;89.85;100777.41;5007256;28;20606;-59
2022/01/27 02:20:08;;;;;;;21.88;8.20;;;;;;;4.62;89.21;100768.84;5006544;28;20077;-58
2022/01/27 02:22:35;;;;;;;17.73;6.72;;;;;;;4.61;89.40;100765.44;5007473;28;20054;-58
2022/01/27 02:25:03;;;;;;;22.90;7.47;;;;;;;4.63;89.82;100758.59;5008442;28;20537;-58
2022/01/27 02:27:30;;;;;;;23.65;7.38;;;;;;;4.63;89.60;100750.03;5007428;28;20042;-59
2022/01/27 02:29:56;;;;;;;23.20;6.72;;;;;;;4.64;89.28;100746.63;5006201;28;20057;-58
2022/01/27 02:32:24;;;;;;;16.33;6.47;;;;;;;4.64;89.56;100746.63;5006686;28;20479;-58
2022/01/27 02:34:51;;;;;;;20.48;7.50;;;;;;;4.63;89.45;100743.22;5006336;28;20052;-58
2022/01/27 02:37:19;;;;;;;21.08;7.20;;;;;;;4.63;89.78;100732.06;5007987;28;20061;-58
2022/01/27 02:39:45;;;;;;;17.13;7.07;;;;;;;4.62;89.83;100740.63;5007659;28;20060;-58
2022/01/27 02:42:17;;;;;;;22.40;6.68;;;;;;;4.59;89.88;100735.44;5006426;28;20057;-58
2022/01/27 02:44:56;;;;;;;19.83;6.55;;;;;;;4.59;89.25;100738.00;5007462;28;20134;-58
2022/01/27 02:47:25;;;;;;;17.98;7.43;;;;;;;4.61;89.71;100736.31;5007129;28;20065;-57
2022/01/27 02:49:51;;;;;;;24.17;7.45;;;;;;;4.60;89.38;100729.47;5006174;28;20050;-58
2022/01/27 02:52:19;;;;;;;20.60;7.97;;;;;;;4.61;89.30;100731.19;5006200;28;20060;-58
2022/01/27 02:54:46;;;;;;;20.05;7.63;;;;;;;4.61;89.61;100715.78;5007792;28;20053;-58
2022/01/27 02:57:13;;;;;;;18.55;7.32;;;;;;;4.62;89.03;100708.09;5007116;28;20049;-58
2022/01/27 02:59:39;;;;;;;19.95;6.65;;;;;;;4.63;89.26;100698.69;5006857;28;20042;-58
2022/01/27 03:02:06;;;;;;;17.63;7.30;;;;;;;4.64;88.98;100700.41;5006073;28;20053;-58
2022/01/27 03:04:34;;;;;;;18.65;7.28;;;;;;;4.65;89.20;100694.44;5005899;28;20060;-58
2022/01/27 03:07:03;;;;;;;17.52;7.18;;;;;;;4.65;88.70;100691.88;5007300;28;20049;-59
2022/01/27 03:09:31;;;;;;;20.48;7.15;;;;;;;4.64;89.05;100682.44;5005765;28;20483;-59
2022/01/27 03:11:59;;;;;;;20.58;7.55;;;;;;;4.62;89.08;100681.56;5007489;28;20038;-58
2022/01/27 03:14:26;;;;;;;18.45;7.00;;;;;;;4.64;88.76;100682.44;5008525;28;20056;-59
2022/01/27 03:16:55;;;;;;;21.85;7.38;;;;;;;4.63;88.59;100681.59;5007624;28;20042;-58
2022/01/27 03:19:21;;;;;;;17.08;7.55;;;;;;;4.64;88.62;100682.44;5006105;28;20046;-58
2022/01/27 03:21:49;;;;;;;20.90;8.43;;;;;;;4.64;88.48;100674.75;5007226;28;20046;-58
2022/01/27 03:24:15;;;;;;;18.23;7.22;;;;;;;4.64;88.32;100659.34;5006699;28;20140;-59
2022/01/27 03:26:44;;;;;;;18.77;7.80;;;;;;;4.64;88.47;100661.91;5006524;28;20726;-57
2022/01/27 03:29:10;;;;;;;21.55;8.15;;;;;;;4.63;88.30;100652.47;5005516;28;20046;-58
2022/01/27 03:31:37;;;;;;;21.52;7.53;;;;;;;4.64;87.75;100654.22;5007863;28;20046;-58
2022/01/27 03:34:03;;;;;;;17.63;8.32;;;;;;;4.64;87.87;100642.22;5008698;28;20057;-58
2022/01/27 03:36:30;;;;;;;17.70;7.00;;;;;;;4.64;87.81;100638.81;5010142;28;20057;-58
2022/01/27 03:38:56;;;;;;;16.95;8.18;;;;;;;4.64;88.18;100628.53;5010241;28;20054;-58
2022/01/27 03:41:23;;;;;;;17.08;7.53;;;;;;;4.62;87.77;100620.81;5008848;28;20062;-58
2022/01/27 03:43:52;;;;;;;19.20;7.57;;;;;;;4.62;87.54;100625.06;5010735;28;20049;-58
2022/01/27 03:46:19;;;;;;;17.98;7.57;;;;;;;4.64;88.14;100623.41;5007976;28;20050;-58
2022/01/27 03:48:45;;;;;;;22.70;8.63;;;;;;;4.63;88.22;100616.53;5009932;28;20579;-58
2022/01/27 03:51:12;;;;;;;16.15;7.13;;;;;;;4.60;88.49;100621.63;5009010;28;20057;-58
2022/01/27 03:53:38;;;;;;;16.77;6.70;;;;;;;4.60;88.06;100621.63;5010570;28;20046;-58
2022/01/27 03:56:06;;;;;;;15.52;6.53;;;;;;;4.59;88.27;100620.75;5010756;28;20057;-58
2022/01/27 03:58:34;;;;;;;18.55;7.40;;;;;;;4.58;88.69;100607.91;5008245;28;20096;-58
2022/01/27 04:01:03;;;;;;;21.42;8.05;;;;;;;4.58;88.17;100598.50;5002794;28;20108;-58
2022/01/27 04:03:31;;;;;;;23.80;8.63;;;;;;;4.58;88.78;100592.50;5008557;28;20041;-58
2022/01/27 04:06:05;;;;;;;17.70;8.02;;;;;;;4.56;88.63;100589.06;5008840;28;20115;-58
2022/01/27 04:08:31;;;;;;;22.83;8.13;;;;;;;4.55;89.00;100582.19;5009599;28;20148;-58
2022/01/27 04:10:58;;;;;;;16.45;7.63;;;;;;;4.56;88.70;100583.91;5009355;28;20060;-57
2022/01/27 04:13:24;;;;;;;18.80;7.45;;;;;;;4.54;88.79;100571.06;5009972;28;20485;-57
2022/01/27 04:15:51;;;;;;;18.20;7.90;;;;;;;4.57;88.47;100575.38;5008641;28;20049;-58
2022/01/27 04:18:18;;;;;;;33.88;14.57;;;;;;;4.57;88.18;100570.25;5009145;28;20509;-58
2022/01/27 04:20:45;;;;;;;24.40;10.02;;;;;;;4.56;88.71;100569.38;5008419;28;20064;-57
2022/01/27 04:23:11;;;;;;;17.60;7.95;;;;;;;4.56;88.06;100563.38;5003405;28;20423;-58
2022/01/27 04:25:39;;;;;;;18.50;9.13;;;;;;;4.55;88.28;100561.66;5008045;28;20057;-58
2022/01/27 04:28:08;;;;;;;18.15;7.30;;;;;;;4.57;88.83;100565.09;5007876;28;20103;-58
2022/01/27 04:30:34;;;;;;;15.13;7.10;;;;;;;4.57;88.25;100559.97;5010209;28;20042;-57
2022/01/27 04:33:03;;;;;;;14.18;6.55;;;;;;;4.57;88.53;100563.41;5009827;28;20884;-57
2022/01/27 04:35:36;;;;;;;14.15;6.18;;;;;;;4.57;88.80;100554.84;5009634;28;20053;-58
2022/01/27 04:38:16;;;;;;;21.63;11.80;;;;;;;4.56;89.03;100558.25;5007886;28;20101;-58
2022/01/27 04:40:51;;;;;;;14.23;5.22;;;;;;;4.57;88.95;100549.69;5008560;28;20046;-58
2022/01/27 04:43:25;;;;;;;11.67;4.30;;;;;;;4.53;88.42;100542.81;5008863;28;20058;-58
2022/01/27 04:46:00;;;;;;;11.02;5.63;;;;;;;4.51;88.57;100529.09;5007566;28;20665;-58
2022/01/27 04:48:31;;;;;;;10.30;4.55;;;;;;;4.50;88.84;100532.50;5007933;28;20436;-59
2022/01/27 04:51:06;;;;;;;8.63;4.10;;;;;;;4.52;88.59;100541.09;5008329;28;20406;-58
2022/01/27 04:53:36;;;;;;;10.32;5.65;;;;;;;4.51;88.59;100539.34;5006955;28;20045;-59
2022/01/27 04:56:04;;;;;;;10.50;4.97;;;;;;;4.51;88.64;100534.22;5008296;28;20140;-58
2022/01/27 04:58:32;;;;;;;9.25;4.75;;;;;;;4.53;88.14;100532.53;5010394;28;20474;-58
2022/01/27 05:01:01;;;;;;;10.93;5.35;;;;;;;4.54;88.59;100542.81;5008002;28;20052;-59
2022/01/27 05:03:36;;;;;;;14.70;5.75;;;;;;;4.54;88.28;100541.97;5006558;28;20467;-59
2022/01/27 05:06:04;;;;;;;14.50;6.93;;;;;;;4.54;88.52;100544.53;5008558;28;20049;-59
2022/01/27 05:08:31;;;;;;;14.95;6.55;;;;;;;4.54;88.17;100531.69;5006951;28;20046;-59
2022/01/27 05:11:02;;;;;;;17.23;6.95;;;;;;;4.51;88.55;100523.97;5008764;28;20042;-59
2022/01/27 05:13:36;;;;;;;14.43;7.10;;;;;;;4.52;89.02;100526.53;5010683;28;20054;-59
2022/01/27 05:16:02;;;;;;;18.10;8.13;;;;;;;4.53;88.63;100514.56;5008903;28;20050;-59
2022/01/27 05:18:29;;;;;;;18.85;8.73;;;;;;;4.52;88.59;100515.41;5008297;28;20407;-59
2022/01/27 05:20:56;;;;;;;16.88;8.65;;;;;;;4.48;89.07;100513.66;5008681;28;20046;-59
2022/01/27 05:23:23;;;;;;;18.50;8.75;;;;;;;4.52;89.16;100516.28;5007717;28;20054;-59
2022/01/27 05:25:50;;;;;;;19.08;8.32;;;;;;;4.50;88.94;100492.28;5007494;28;20076;-59
2022/01/27 05:28:16;;;;;;;20.75;9.13;;;;;;;4.49;88.79;100494.84;5008674;28;20129;-59
2022/01/27 05:30:43;;;;;;;19.77;8.98;;;;;;;4.48;88.83;100488.84;5008438;28;20044;-59
2022/01/27 05:33:10;;;;;;;19.02;8.98;;;;;;;4.47;88.63;100493.97;5006797;28;20041;-59
2022/01/27 05:35:36;;;;;;;17.98;9.27;;;;;;;4.47;88.66;100499.09;5007773;28;20049;-59
2022/01/27 05:38:03;;;;;;;17.60;7.80;;;;;;;4.43;88.71;100506.75;5009338;28;20053;-59
2022/01/27 05:40:31;;;;;;;19.58;9.43;;;;;;;4.40;89.09;100501.59;5008728;28;20050;-58
2022/01/27 05:42:57;;;;;;;19.83;9.85;;;;;;;4.43;89.14;100504.19;5007486;28;20312;-58
2022/01/27 05:45:24;;;;;;;19.95;10.27;;;;;;;4.43;89.10;100501.63;5009173;28;20070;-58
2022/01/27 05:47:50;;;;;;;18.05;9.10;;;;;;;4.40;89.12;100491.31;5008210;28;20137;-58
2022/01/27 05:50:17;;;;;;;19.00;7.95;;;;;;;4.39;88.72;100492.16;5007387;28;20471;-59
2022/01/27 05:52:43;;;;;;;20.23;8.32;;;;;;;4.38;89.09;100498.13;5009122;28;20053;-58
2022/01/27 05:55:10;;;;;;;15.88;8.07;;;;;;;4.33;88.47;100481.81;5008079;28;20056;-58
2022/01/27 05:57:38;;;;;;;19.13;8.45;;;;;;;4.30;88.68;100474.09;5007019;28;20052;-58
2022/01/27 06:00:06;;;;;;;18.83;8.82;;;;;;;4.31;88.59;100470.69;5006319;28;20052;-59
2022/01/27 06:02:32;;;;;;;20.27;10.20;;;;;;;4.33;88.41;100469.00;5007816;28;20072;-59
2022/01/27 06:05:02;;;;;;;21.77;8.52;;;;;;;4.34;88.46;100454.47;5006294;28;20054;-59
2022/01/27 06:07:28;;;;;;;21.52;8.70;;;;;;;4.30;89.09;100453.56;5004623;28;20458;-59
2022/01/27 06:09:55;;;;;;;20.92;9.25;;;;;;;4.29;88.86;100441.56;5007438;28;20629;-58
2022/01/27 06:12:21;;;;;;;23.45;10.45;;;;;;;4.23;88.77;100435.50;5008022;28;20479;-59
2022/01/27 06:14:49;;;;;;;21.48;9.98;;;;;;;4.22;89.30;100429.50;5006377;28;20471;-59
2022/01/27 06:17:16;;;;;;;19.30;9.15;;;;;;;4.21;89.31;100422.66;5007405;28;20061;-59
2022/01/27 06:19:44;;;;;;;25.63;10.77;;;;;;;4.19;88.99;100414.09;5008317;28;20042;-60
2022/01/27 06:22:12;;;;;;;23.15;10.43;;;;;;;4.18;89.36;100412.38;5007592;28;20042;-58
2022/01/27 06:24:39;;;;;;;25.27;11.65;;;;;;;4.18;89.11;100409.78;5006010;28;20100;-58
2022/01/27 06:27:06;;;;;;;24.35;10.32;;;;;;;4.13;89.74;100403.72;5005963;28;20081;-58
2022/01/27 06:29:33;;;;;;;25.15;11.32;;;;;;;4.15;89.36;100407.16;5007136;28;20057;-57
2022/01/27 06:32:00;;;;;;;21.65;10.35;;;;;;;4.09;89.90;100396.81;5007057;28;20057;-58
2022/01/27 06:34:27;;;;;;;22.83;9.77;;;;;;;4.08;90.08;100397.66;5007685;28;20062;-58
2022/01/27 06:36:53;;;;;;;23.52;9.05;;;;;;;4.06;89.91;100391.66;5005577;28;20395;-59
2022/01/27 06:39:20;;;;;;;17.98;8.73;;;;;;;4.01;90.13;100383.06;5006422;28;20054;-59
2022/01/27 06:41:47;;;;;;;19.75;9.00;;;;;;;3.95;89.79;100382.97;4997815;28;20046;-59
2022/01/27 06:44:14;;;;;;;18.63;8.77;;;;;;;3.94;89.86;100371.00;5007050;28;20057;-59
2022/01/27 06:46:40;;;;;;;20.75;8.73;;;;;;;3.91;90.36;100376.09;5005816;28;20058;-59
2022/01/27 06:49:10;;;;;;;21.85;8.57;;;;;;;3.90;89.98;100364.09;5007333;28;20057;-59
2022/01/27 06:51:36;;;;;;;19.00;8.85;;;;;;;3.87;89.95;100364.06;5007507;28;20059;-59
2022/01/27 06:54:03;;;;;;;17.77;8.88;;;;;;;3.85;90.73;100360.63;5005116;28;20053;-59
2022/01/27 06:56:29;;;;;;;18.38;8.30;;;;;;;3.80;89.89;100351.16;5006711;28;20049;-59
2022/01/27 06:58:56;;;;;;;18.48;7.88;;;;;;;3.82;89.91;100350.31;5006073;28;20053;-58
2022/01/27 07:01:22;;;;;;;20.42;9.60;;;;;;;3.79;90.65;100341.75;5005832;28;20049;-58
2022/01/27 07:03:49;;;;;;;16.25;8.70;;;;;;;3.77;90.15;100334.88;4997365;28;20050;-60
2022/01/27 07:06:17;;;;;;;18.58;7.63;;;;;;;3.72;90.41;100329.69;5001333;28;20064;-62
2022/01/27 07:08:44;;;;;;;18.20;8.40;;;;;;;3.73;90.58;100325.44;5005662;28;20064;-64
2022/01/27 07:11:10;;;;;;;18.75;7.95;;;;;;;3.74;90.47;100317.75;5008646;28;20441;-66
2022/01/27 07:13:40;;;;;;;18.77;7.65;;;;;;;3.74;90.48;100307.50;5008328;28;20077;-66
2022/01/27 07:16:07;;;;;;;18.42;8.15;;;;;;;3.74;90.46;100304.09;5011041;28;20235;-60
2022/01/27 07:18:34;;;;;;;19.48;8.10;;;;;;;3.72;90.24;100293.81;5008381;28;20092;-61
2022/01/27 07:21:01;;;;;;;16.70;8.18;;;;;;;3.71;91.17;100291.22;5008405;28;20050;-60
2022/01/27 07:23:28;;;;;;;19.45;9.05;;;;;;;3.69;90.66;100286.09;5009253;28;20057;-61
2022/01/27 07:25:55;;;;;;;18.10;8.70;;;;;;;3.71;91.38;100283.53;5008441;28;20061;-61
2022/01/27 07:28:21;;;;;;;21.30;8.75;;;;;;;3.67;90.76;100271.53;5008936;28;20383;-61
2022/01/27 07:30:48;;;;;;;125.68;21.35;;;;;;;3.67;90.99;100277.53;5007579;28;20052;-63
2022/01/27 07:33:14;;;;;;;19.05;7.60;;;;;;;3.64;90.61;100272.34;5007674;28;20673;-61
2022/01/27 07:35:41;;;;;;;15.75;7.60;;;;;;;3.64;90.89;100267.22;5008167;28;20042;-63
2022/01/27 07:38:08;;;;;;;14.50;7.18;;;;;;;3.61;90.48;100263.75;5008910;28;20064;-66
2022/01/27 07:40:36;;;;;;;15.98;7.25;;;;;;;3.63;90.87;100268.03;5007649;28;20054;-67
2022/01/27 07:43:03;;;;;;;18.80;7.07;;;;;;;3.61;90.89;100262.03;5007481;28;20046;-58
2022/01/27 07:45:29;;;;;;;19.35;7.45;;;;;;;3.59;91.04;100263.72;5006535;28;20422;-61
2022/01/27 07:47:57;;;;;;;39.33;8.77;;;;;;;3.58;90.81;100249.19;5006539;28;20049;-58
2022/01/27 07:50:28;;;;;;;17.95;6.38;;;;;;;3.57;90.75;100247.47;5007808;28;20069;-70
2022/01/27 07:52:55;;;;;;;15.90;6.03;;;;;;;3.55;90.13;100244.03;5008547;28;20093;-64
2022/01/27 07:55:22;;;;;;;14.63;5.97;;;;;;;3.53;90.31;100245.72;5008646;28;20454;-65
2022/01/27 07:57:50;;;;;;;15.52;6.70;;;;;;;3.56;90.57;100240.63;5008407;28;20092;-64
2022/01/27 08:00:17;;;;;;;14.52;5.57;;;;;;;3.55;89.79;100228.66;5010868;28;20467;-68
2022/01/27 08:02:45;;;;;;;13.05;6.28;;;;;;;3.57;90.15;100237.22;5008622;28;20075;-62
2022/01/27 08:05:12;;;;;;;13.85;6.60;;;;;;;3.52;90.05;100228.63;5007554;28;20052;-68
2022/01/27 08:07:39;;;;;;;11.43;5.57;;;;;;;3.53;90.01;100224.34;5008524;28;20062;-59
2022/01/27 08:10:06;;;;;;;15.10;6.32;;;;;;;3.54;90.39;100211.56;5008152;28;20428;-66
2022/01/27 08:12:32;;;;;;;12.95;5.63;;;;;;;3.54;90.45;100219.25;5008095;28;20053;-61
2022/01/27 08:15:01;;;;;;;13.02;5.60;;;;;;;3.53;89.70;100217.53;5008375;28;20053;-60
2022/01/27 08:17:28;;;;;;;10.73;4.80;;;;;;;3.53;89.67;100214.94;5006891;28;20475;-61
2022/01/27 08:19:55;;;;;;;11.98;4.68;;;;;;;3.54;89.15;100205.56;5007956;28;20054;-62
2022/01/27 10:10:07;;;;;;;2.83;1.25;;;;;;;4.31;86.00;99979.72;5046867;23;20068;-57
2022/01/27 10:12:39;;;;;;;1.77;0.88;;;;;;;4.32;86.30;99969.47;5043278;28;20409;-57
2022/01/27 10:15:09;;;;;;;2.40;1.33;;;;;;;4.29;85.36;99979.72;5040916;28;20135;-57
2022/01/27 10:17:39;;;;;;;3.22;1.80;;;;;;;4.29;86.42;99969.47;5045070;28;20048;-58
2022/01/27 10:20:16;;;;;;;1.88;1.23;;;;;;;4.25;86.18;99965.16;5044621;28;20056;-56
2022/01/27 10:22:42;;;;;;;1.98;0.80;;;;;;;4.27;86.69;99955.78;5043211;28;20060;-57
2022/01/27 10:25:20;;;;;;;2.20;1.02;;;;;;;4.25;86.69;99957.47;5043124;28;20053;-57
2022/01/27 10:27:57;;;;;;;1.90;1.00;;;;;;;4.30;86.25;99965.19;5042355;28;20448;-56
2022/01/27 10:33:14;;;;;;;3.97;2.17;;;;;;;4.26;86.68;99958.31;5045880;28;20049;-56
2022/01/27 10:35:42;;;;;;;2.70;1.88;;;;;;;4.26;86.11;99954.06;5044950;28;20045;-55
2022/01/27 10:38:12;;;;;;;2.25;1.30;;;;;;;4.22;85.92;99938.66;5044708;28;20053;-56
2022/01/27 10:40:43;;;;;;;3.67;1.30;;;;;;;4.19;86.80;99947.19;5044132;28;20051;-55
2022/01/27 10:43:13;;;;;;;2.92;1.30;;;;;;;4.19;86.97;99926.66;5044658;28;20041;-57
2022/01/27 10:46:08;;;;;;;2.00;1.25;;;;;;;4.16;87.21;99929.19;5047092;28;20061;-56
2022/01/27 10:48:41;;;;;;;5.72;1.65;;;;;;;4.17;86.87;99932.63;5046930;28;20115;-59
2022/01/27 10:51:13;;;;;;;2.75;0.93;;;;;;;4.17;87.65;99918.09;5047532;28;20379;-53
2022/01/27 10:53:59;;;;;;;3.83;1.02;;;;;;;4.17;87.53;99912.97;5052449;28;20045;-56
2022/01/27 10:56:29;;;;;;;2.03;1.10;;;;;;;4.14;87.81;99907.78;5043670;28;20052;-57
2022/01/27 10:58:57;;;;;;;6.10;1.60;;;;;;;4.18;88.46;99903.56;5047707;28;20452;-54
2022/01/27 11:01:27;;;;;;;1.63;1.00;;;;;;;4.20;88.08;99902.72;5047851;28;20043;-56
2022/01/27 11:03:55;;;;;;;2.75;1.65;;;;;;;4.20;88.72;99905.28;5046316;28;20049;-55
2022/01/27 11:06:25;;;;;;;2.25;1.10;;;;;;;4.23;88.75;99892.47;5046604;28;20057;-58
2022/01/27 11:08:54;;;;;;;2.35;1.20;;;;;;;4.25;89.52;99895.03;5047045;28;20053;-56
2022/01/27 11:11:23;;;;;;;2.08;1.15;;;;;;;4.35;89.58;99887.38;5052252;28;20088;-58
2022/01/27 11:13:51;;;;;;;3.55;1.60;;;;;;;4.37;89.36;99880.53;5052603;28;20397;-58
2022/01/27 11:16:22;;;;;;;3.33;1.20;;;;;;;4.39;88.80;99877.97;5053227;28;20057;-57
2022/01/27 11:18:49;;;;;;;2.17;1.30;;;;;;;4.44;88.83;99874.56;5051811;28;20056;-58
2022/01/27 11:21:30;;;;;;;4.60;2.42;;;;;;;4.52;88.64;99863.47;5051862;28;20048;-58
2022/01/27 11:24:06;;;;;;;3.10;1.70;;;;;;;4.57;88.90;99861.75;5052274;28;20115;-58
2022/01/27 11:26:37;;;;;;;9.07;1.80;;;;;;;4.61;88.41;99855.78;5046800;28;20130;-54
2022/01/27 11:29:06;;;;;;;4.63;1.90;;;;;;;4.69;89.07;99856.69;5047894;28;20080;-53
2022/01/27 11:31:53;;;;;;;2.28;1.33;;;;;;;4.70;88.20;99843.00;5048111;28;20084;-54
2022/01/27 11:34:22;;;;;;;4.93;1.70;;;;;;;4.66;87.79;99846.38;5043906;28;20053;-52
2022/01/27 11:37:04;;;;;;;2.13;0.90;;;;;;;4.64;87.34;99837.81;5045896;28;20045;-55
2022/01/27 11:39:50;;;;;;;4.30;1.70;;;;;;;4.62;87.45;99834.38;5045894;28;20057;-55
2022/01/27 11:42:21;;;;;;;2.67;1.42;;;;;;;4.65;87.58;99839.53;5043796;28;20490;-54
2022/01/27 11:44:52;;;;;;;3.65;1.60;;;;;;;4.69;87.65;99825.88;5045379;28;20045;-56
2022/01/27 11:47:20;;;;;;;3.03;1.40;;;;;;;4.71;87.69;99824.16;5045981;28;20061;-51
2022/01/27 11:50:05;;;;;;;2.88;1.50;;;;;;;4.72;87.59;99810.47;5045203;28;20121;-54
2022/01/27 11:52:35;;;;;;;1.85;1.08;;;;;;;4.75;87.88;99806.19;5046407;28;20051;-56
2022/01/27 11:55:54;;;;;;;2.28;1.45;;;;;;;4.79;87.92;99812.19;5046424;28;20126;-58
2022/01/27 11:58:23;;;;;;;4.40;1.60;;;;;;;4.79;87.97;99795.91;4961436;28;20085;-57
2022/01/27 12:01:15;;;;;;;2.72;1.65;;;;;;;4.77;88.30;99797.63;4960486;28;20050;-56
2022/01/27 12:04:15;;;;;;;3.88;1.60;;;;;;;4.81;88.61;99789.94;5012235;28;20045;-52
2022/01/27 12:06:43;;;;;;;2.60;1.30;;;;;;;4.83;88.29;99783.09;5044954;28;21854;-58
2022/01/27 12:09:33;;;;;;;3.45;1.85;;;;;;;4.91;88.88;99780.50;5043178;28;20059;-59
2022/01/27 12:12:03;;;;;;;4.82;1.60;;;;;;;4.93;88.13;99782.22;5042334;28;20622;-58
2022/01/27 12:15:03;;;;;;;3.97;1.92;;;;;;;4.99;88.23;99774.50;5041436;28;20536;-56
2022/01/27 12:17:35;;;;;;;5.63;1.70;;;;;;;5.03;88.44;99760.78;5041869;28;20111;-57
2022/01/27 12:20:09;;;;;;;5.68;2.05;;;;;;;5.04;nan;99765.06;5044043;28;20064;-54
2022/01/27 12:23:14;;;;;;;3.78;2.05;;;;;;;5.12;88.82;99748.78;5039699;28;20045;-50
2022/01/27 12:25:51;;;;;;;2.25;1.05;;;;;;;5.17;88.09;99741.94;5043023;28;20141;-58
2022/01/27 12:28:18;;;;;;;2.40;1.33;;;;;;;5.23;88.21;99740.22;5042270;28;20041;-58
2022/01/27 12:31:01;;;;;;;4.18;1.45;;;;;;;5.25;88.16;99740.22;5040846;28;20059;-59
2022/01/27 12:33:29;;;;;;;4.13;1.48;;;;;;;5.25;87.99;99740.22;5040780;28;20080;-57
2022/01/27 12:35:56;;;;;;;2.85;1.30;;;;;;;5.27;87.54;99735.94;5039534;28;20129;-60
2022/01/27 12:38:23;;;;;;;5.30;2.63;;;;;;;5.26;88.09;99731.66;5041520;28;20501;-60
2022/01/27 12:40:56;;;;;;;8.32;3.00;;;;;;;5.27;88.29;99723.94;5041228;28;20064;-58
2022/01/27 12:43:23;;;;;;;2.92;1.38;;;;;;;5.30;87.74;99729.06;5041988;28;20064;-61
2022/01/27 12:45:50;;;;;;;6.88;2.10;;;;;;;5.28;87.95;99715.38;5039675;28;20052;-59
2022/01/27 12:48:22;;;;;;;5.07;1.77;;;;;;;5.30;88.18;99707.66;5039025;28;20064;-58
2022/01/27 12:50:56;;;;;;;4.20;1.30;;;;;;;5.32;88.34;99711.06;5041115;28;20600;-59
2022/01/27 12:53:23;;;;;;;2.75;1.15;;;;;;;5.29;88.32;99700.81;5042170;28;20060;-56
2022/01/27 12:55:50;;;;;;;3.10;1.30;;;;;;;5.28;88.36;99693.97;5040913;28;20053;-56
2022/01/27 12:58:18;;;;;;;4.10;0.80;;;;;;;5.24;88.43;99695.69;5037726;28;20084;-55
2022/01/27 13:00:46;;;;;;;11.15;1.63;;;;;;;5.22;88.85;99693.97;5040841;28;20147;-56
2022/01/27 13:03:14;;;;;;;3.30;1.48;;;;;;;5.23;88.77;99690.56;5040680;28;20049;-56
2022/01/27 13:05:42;;;;;;;4.63;1.30;;;;;;;5.21;88.84;99682.00;5039709;28;20059;-57
2022/01/27 13:08:17;;;;;;;2.22;1.17;;;;;;;5.17;89.06;99691.41;5038216;28;20080;-58
2022/01/27 13:10:48;;;;;;;3.95;1.30;;;;;;;5.19;88.68;99684.53;5038780;28;20641;-56
2022/01/27 13:13:19;;;;;;;2.42;1.48;;;;;;;5.20;88.74;99687.97;5040186;28;20782;-57
2022/01/27 13:15:46;;;;;;;3.05;1.48;;;;;;;5.21;89.25;99682.00;5043430;28;20049;-57
2022/01/27 13:18:18;;;;;;;3.80;1.33;;;;;;;5.26;89.25;99680.25;5043155;28;20071;-60
2022/01/27 13:20:48;;;;;;;4.70;1.58;;;;;;;5.27;88.82;99679.41;5041208;28;20056;-58
2022/01/27 13:23:24;;;;;;;7.35;2.03;;;;;;;5.28;88.41;99686.25;5042872;28;20668;-53
2022/01/27 13:25:53;;;;;;;2.78;1.52;;;;;;;5.29;88.23;99659.69;5039027;28;20049;-51
2022/01/27 13:28:24;;;;;;;2.45;1.50;;;;;;;5.27;88.05;99666.56;5037824;28;20061;-53
2022/01/27 13:30:53;;;;;;;2.45;1.10;;;;;;;5.24;88.38;99658.88;5040370;28;20631;-52
2022/01/27 13:33:22;;;;;;;2.33;0.90;;;;;;;5.26;88.42;99659.72;5042051;28;20128;-51
2022/01/27 13:35:50;;;;;;;3.17;1.27;;;;;;;5.26;88.01;99664.84;5040286;28;20059;-49
2022/01/27 13:38:22;;;;;;;8.43;3.55;;;;;;;5.25;88.68;99663.16;5042203;28;20055;-52
2022/01/27 13:43:37;;;;;;;7.03;1.88;;;;;;;5.23;88.67;99641.75;5039710;28;20068;-58
2022/01/27 13:46:04;;;;;;;6.70;1.77;;;;;;;5.24;87.96;99649.44;5041940;28;20055;-56
2022/01/27 13:48:33;;;;;;;5.25;1.90;;;;;;;5.26;88.54;99649.44;5039144;28;20111;-58
2022/01/27 13:51:03;;;;;;;8.73;2.88;;;;;;;5.27;88.45;99640.88;5040820;28;20545;-56
2022/01/27 13:53:31;;;;;;;13.43;4.13;;;;;;;5.27;88.74;99631.44;5039796;28;20049;-57
2022/01/27 13:56:00;;;;;;;7.57;2.78;;;;;;;5.28;88.63;99627.16;5041091;28;20048;-58